Portada
METAR-TAF:

METAR-TAF

Aeropuertos :

Aeropuerto de Sabadell

Sabadell, España

latitud: 41-31N, longitud: 002-06E, altitud: 250 m

Observación

El informe se hizo hace 14 minutos, a las 20:00 UTC
Viento 6 kt del oeste
Temperatura 10°C
Humedad 82%
Presión 1014 hPa
Visibilidad 10 km o más

METAR: LELL 212000Z AUTO 28006KT 9999 NCD 10/07 Q1014

Hora: 21:14 (20:14 UTC)

Pronóstico

El informe se hizo hace 6 horas y 14 minutos, a las 14:00 UTC
Pronóstico válido del 21 a las 15 UTC al 22 a las 15 UTC
Viento 8 kt del oeste
Visibilidad 10 km o más
Escasas nubes a una altura de 4000 ft

TAF: LELL 211400Z 2115/2215 27008KT 9999 FEW040 TX16/2213Z TN07/2205Z

Observaciones y pronósticos meteorológicos de más de 4000 aeropuertos (mensajes METAR y TAF).

Los puntos amarillos y rojos representan las estaciones disponibles.

Ponga el ratón en el punto deseado para ver el nombre de la estación.

Haga clic para ver las observaciones y los pronósticos meteorológicos.

Para cambiar el mapa : haga clic en los botones verdes con una cruz de color negro para hacer un zoom, en el botón verde con un guión para alejar o en las flechas verdes para mapas adyacentes.


METAR-TAF: